Aérodrome :
LOGIN :

S'inscrire | Disclaimer

   EN    FR    IT 

 










Légende :    VFR   VFR Marginal   IFR   IFR Intensif   IFR Très Intensif
Visi : 
Plafond : 
>= 8 km
>= 3000ft
5 à 8 km
1000 à 3000 ft
1500m à 5 km
500 à 1000 ft
800 à 1500m
200 à 500 ft
< 800m
< 200 ft
Symboles :   Orages  Brouillard  Fortes neiges  Fortes précipitations  Vent > 20 kt
SIGMETs :   Divers  Orages  Givrage  Turbulence  Onde Orograph.  Cendres Volcan.






- Altitude de l'aérodrome : 49 ft
- Code IATA : GLZ


EHGR - Gilze-Rijen Airbase

DERNIER METAR :
  • 190755Z AUTO 02008KT 320V090 9999 FEW011 BKN016 16/14 Q1018 WHT TEMPO SCT015 SCT021

METARs EXPIRÉS :
  • 190731Z AUTO 02009KT 300V050 9999 FEW010 SCT013 BKN016 15/13 Q1017 GRN TEMPO SCT015 SCT021
  • 190725Z AUTO 02009KT 300V050 9999 FEW011 OVC033 15/13 Q1017 BLU BECMG NSW FEW0012 SCT018
  • 190707Z AUTO 02008KT 320V070 9000 BR FEW010 BKN012 BKN031 15/14 Q1017 GRN BECMG NSW FEW0012 SCT018
  • 190655Z AUTO 02007KT 320V060 8000 BR FEW006 SCT011 OVC013 15/14 Q1017 GRN BECMG NSW FEW0012 SCT018
  • 190625Z AUTO 02009KT 290V050 6000 BR BKN005 OVC006 14/14 Q1016 YLO
  • 190555Z AUTO 02007KT 320V050 4100 BR BKN004 OVC005 14/14 Q1016 YLO
  • 190525Z AUTO 01008KT 320V060 4600 BR OVC004 14/14 Q1016 YLO
  • 190455Z AUTO 02009KT 320V060 4100 BR OVC004 14/14 Q1016 YLO
  • 190425Z AUTO 02006KT 320V070 3700 BR SCT004 OVC005 14/14 Q1015 YLO
  • 190355Z AUTO 01007KT 310V050 3900 BR SCT004 OVC010 14/14 Q1015 YLO
  • 190336Z AUTO 36007KT 300V060 3900 BR BKN003 BKN006 BKN008 14/14 Q1015 YLO
  • 190325Z AUTO 35006KT 300V060 4100 BR OVC003 14/14 Q1015 YLO

TAF TAF EHGR
Valide du 19 à 05h jusqu'au 19 à 17h UTC


190434Z 1905/1917 01005KT 3500 BR SCT005 BKN007
BECMG 1905/1907 6000 NSW SCT012
BECMG 1907/1909 FEW016 SCT020



MET'MAP, la Météo Aéronautique d'un coup d'oeil ! - Copyright ORBIFLY Décembre 2007 - Disclaimer

ORBIFLY MET'MAP TEAM :

Programmation & Développement : Alexandra Zaïnal
Sur une idée originale de : Baudouin d'Aumeries
Soutien technique & logistique : Manuel Goepfert
Assistance : Marc-Olivier Méhu




SOURCES & CREDITS :

   NOAA